sensor_id;sensor_type;location;lat;lon;timestamp;temperature;humidity
8792;DHT22;4432;50.890;4.744;2023-01-28T00:01:49;4.30;99.90
8792;DHT22;4432;50.890;4.744;2023-01-28T00:04:15;4.30;99.90
8792;DHT22;4432;50.890;4.744;2023-01-28T00:06:41;4.30;99.90
8792;DHT22;4432;50.890;4.744;2023-01-28T00:09:07;4.30;99.90
8792;DHT22;4432;50.890;4.744;2023-01-28T00:11:33;4.30;99.90
8792;DHT22;4432;50.890;4.744;2023-01-28T00:13:59;4.30;99.90
8792;DHT22;4432;50.890;4.744;2023-01-28T00:16:26;4.30;99.90
8792;DHT22;4432;50.890;4.744;2023-01-28T00:18:53;4.30;99.90
8792;DHT22;4432;50.890;4.744;2023-01-28T00:21:19;4.30;99.90
8792;DHT22;4432;50.890;4.744;2023-01-28T00:23:51;4.20;99.90
8792;DHT22;4432;50.890;4.744;2023-01-28T00:26:18;4.20;99.90
8792;DHT22;4432;50.890;4.744;2023-01-28T00:28:45;4.20;99.90
8792;DHT22;4432;50.890;4.744;2023-01-28T00:31:22;4.20;99.90
8792;DHT22;4432;50.890;4.744;2023-01-28T00:33:50;4.20;99.90
8792;DHT22;4432;50.890;4.744;2023-01-28T00:36:17;4.30;99.90
8792;DHT22;4432;50.890;4.744;2023-01-28T00:38:47;4.30;99.90
8792;DHT22;4432;50.890;4.744;2023-01-28T00:41:16;4.30;99.90
8792;DHT22;4432;50.890;4.744;2023-01-28T00:43:42;4.20;99.90
8792;DHT22;4432;50.890;4.744;2023-01-28T00:46:11;4.20;99.90
8792;DHT22;4432;50.890;4.744;2023-01-28T00:48:39;4.20;99.90
8792;DHT22;4432;50.890;4.744;2023-01-28T00:51:06;4.20;99.90
8792;DHT22;4432;50.890;4.744;2023-01-28T00:53:32;4.20;99.90
8792;DHT22;4432;50.890;4.744;2023-01-28T00:56:04;4.20;99.90
8792;DHT22;4432;50.890;4.744;2023-01-28T00:58:30;4.20;99.90
8792;DHT22;4432;50.890;4.744;2023-01-28T01:00:56;4.20;99.90
8792;DHT22;4432;50.890;4.744;2023-01-28T01:03:30;4.20;99.90
8792;DHT22;4432;50.890;4.744;2023-01-28T01:05:57;4.20;99.90
8792;DHT22;4432;50.890;4.744;2023-01-28T01:08:22;4.20;99.90
8792;DHT22;4432;50.890;4.744;2023-01-28T01:11:03;4.20;99.90
8792;DHT22;4432;50.890;4.744;2023-01-28T01:13:29;4.20;99.90
8792;DHT22;4432;50.890;4.744;2023-01-28T01:16:13;4.20;99.90
8792;DHT22;4432;50.890;4.744;2023-01-28T01:18:40;4.20;99.90
8792;DHT22;4432;50.890;4.744;2023-01-28T01:21:08;4.20;99.90
8792;DHT22;4432;50.890;4.744;2023-01-28T01:23:35;4.20;99.90
8792;DHT22;4432;50.890;4.744;2023-01-28T01:26:00;4.20;99.90
8792;DHT22;4432;50.890;4.744;2023-01-28T01:28:27;4.20;99.90
8792;DHT22;4432;50.890;4.744;2023-01-28T01:30:59;4.20;99.90
8792;DHT22;4432;50.890;4.744;2023-01-28T01:33:27;4.20;99.90
8792;DHT22;4432;50.890;4.744;2023-01-28T01:35:54;4.20;99.90
8792;DHT22;4432;50.890;4.744;2023-01-28T01:38:20;4.20;99.90
8792;DHT22;4432;50.890;4.744;2023-01-28T01:40:46;4.20;99.90
8792;DHT22;4432;50.890;4.744;2023-01-28T01:43:20;4.10;99.90
8792;DHT22;4432;50.890;4.744;2023-01-28T01:45:48;4.20;99.90
8792;DHT22;4432;50.890;4.744;2023-01-28T01:48:22;4.10;99.90
8792;DHT22;4432;50.890;4.744;2023-01-28T01:50:58;4.10;99.90
8792;DHT22;4432;50.890;4.744;2023-01-28T01:53:25;4.10;99.90
8792;DHT22;4432;50.890;4.744;2023-01-28T01:55:56;4.10;99.90
8792;DHT22;4432;50.890;4.744;2023-01-28T01:58:26;4.10;99.90
8792;DHT22;4432;50.890;4.744;2023-01-28T02:00:53;4.10;99.90
8792;DHT22;4432;50.890;4.744;2023-01-28T02:03:25;4.10;99.90
8792;DHT22;4432;50.890;4.744;2023-01-28T02:05:52;4.10;99.90
8792;DHT22;4432;50.890;4.744;2023-01-28T02:08:18;4.10;99.90
8792;DHT22;4432;50.890;4.744;2023-01-28T02:10:58;4.10;99.90
8792;DHT22;4432;50.890;4.744;2023-01-28T02:13:28;4.10;99.90
8792;DHT22;4432;50.890;4.744;2023-01-28T02:15:58;4.10;99.90
8792;DHT22;4432;50.890;4.744;2023-01-28T02:18:25;4.00;99.90
8792;DHT22;4432;50.890;4.744;2023-01-28T02:21:29;4.00;99.90
8792;DHT22;4432;50.890;4.744;2023-01-28T02:27:26;4.00;99.90
8792;DHT22;4432;50.890;4.744;2023-01-28T02:30:32;4.00;99.90
8792;DHT22;4432;50.890;4.744;2023-01-28T02:33:17;4.00;99.90
8792;DHT22;4432;50.890;4.744;2023-01-28T02:35:51;4.00;99.90
8792;DHT22;4432;50.890;4.744;2023-01-28T02:38:35;4.00;99.90
8792;DHT22;4432;50.890;4.744;2023-01-28T02:41:08;4.00;99.90
8792;DHT22;4432;50.890;4.744;2023-01-28T02:43:41;4.00;99.90
8792;DHT22;4432;50.890;4.744;2023-01-28T02:46:41;4.00;99.90
8792;DHT22;4432;50.890;4.744;2023-01-28T03:03:56;3.90;99.90
8792;DHT22;4432;50.890;4.744;2023-01-28T03:06:31;3.90;99.90
8792;DHT22;4432;50.890;4.744;2023-01-28T03:09:02;3.90;99.90
8792;DHT22;4432;50.890;4.744;2023-01-28T03:14:37;3.90;99.90
8792;DHT22;4432;50.890;4.744;2023-01-28T03:20:13;3.80;99.90
8792;DHT22;4432;50.890;4.744;2023-01-28T03:23:01;3.90;99.90
8792;DHT22;4432;50.890;4.744;2023-01-28T03:25:48;3.80;99.90
8792;DHT22;4432;50.890;4.744;2023-01-28T03:28:37;3.80;99.90
8792;DHT22;4432;50.890;4.744;2023-01-28T03:31:22;3.80;99.90
8792;DHT22;4432;50.890;4.744;2023-01-28T03:34:09;3.80;99.90
8792;DHT22;4432;50.890;4.744;2023-01-28T03:36:54;3.80;99.90
8792;DHT22;4432;50.890;4.744;2023-01-28T03:39:26;3.70;99.90
8792;DHT22;4432;50.890;4.744;2023-01-28T03:42:02;3.70;99.90
8792;DHT22;4432;50.890;4.744;2023-01-28T03:44:29;3.70;99.90
8792;DHT22;4432;50.890;4.744;2023-01-28T03:47:13;3.70;99.90
8792;DHT22;4432;50.890;4.744;2023-01-28T03:49:47;3.70;99.90
8792;DHT22;4432;50.890;4.744;2023-01-28T03:52:18;3.70;99.90
8792;DHT22;4432;50.890;4.744;2023-01-28T03:54:45;3.70;99.90
8792;DHT22;4432;50.890;4.744;2023-01-28T03:57:15;3.70;99.90
8792;DHT22;4432;50.890;4.744;2023-01-28T03:59:41;3.70;99.90
8792;DHT22;4432;50.890;4.744;2023-01-28T04:02:08;3.70;99.90
8792;DHT22;4432;50.890;4.744;2023-01-28T04:04:37;3.70;99.90
8792;DHT22;4432;50.890;4.744;2023-01-28T04:07:03;3.70;99.90
8792;DHT22;4432;50.890;4.744;2023-01-28T04:09:29;3.70;99.90
8792;DHT22;4432;50.890;4.744;2023-01-28T04:11:54;3.70;99.90
8792;DHT22;4432;50.890;4.744;2023-01-28T04:14:20;3.60;99.90
8792;DHT22;4432;50.890;4.744;2023-01-28T04:16:46;3.60;99.90
8792;DHT22;4432;50.890;4.744;2023-01-28T04:19:12;3.60;99.90
8792;DHT22;4432;50.890;4.744;2023-01-28T04:21:38;3.60;99.90
8792;DHT22;4432;50.890;4.744;2023-01-28T04:24:04;3.60;99.90
8792;DHT22;4432;50.890;4.744;2023-01-28T04:26:30;3.50;99.90
8792;DHT22;4432;50.890;4.744;2023-01-28T04:28:56;3.50;99.90
8792;DHT22;4432;50.890;4.744;2023-01-28T04:31:22;3.50;99.90
8792;DHT22;4432;50.890;4.744;2023-01-28T04:33:49;3.40;99.90
8792;DHT22;4432;50.890;4.744;2023-01-28T04:36:15;3.40;99.90
8792;DHT22;4432;50.890;4.744;2023-01-28T04:38:41;3.40;99.90
8792;DHT22;4432;50.890;4.744;2023-01-28T04:41:07;3.40;99.90
8792;DHT22;4432;50.890;4.744;2023-01-28T04:43:33;3.50;99.90
8792;DHT22;4432;50.890;4.744;2023-01-28T04:45:59;3.40;99.90
8792;DHT22;4432;50.890;4.744;2023-01-28T04:48:25;3.40;99.90
8792;DHT22;4432;50.890;4.744;2023-01-28T04:50:51;3.50;99.90
8792;DHT22;4432;50.890;4.744;2023-01-28T04:53:16;3.40;99.90
8792;DHT22;4432;50.890;4.744;2023-01-28T04:55:44;3.40;99.90
8792;DHT22;4432;50.890;4.744;2023-01-28T04:58:09;3.40;99.90
8792;DHT22;4432;50.890;4.744;2023-01-28T05:00:35;3.40;99.90
8792;DHT22;4432;50.890;4.744;2023-01-28T05:03:01;3.40;99.90
8792;DHT22;4432;50.890;4.744;2023-01-28T05:05:27;3.40;99.90
8792;DHT22;4432;50.890;4.744;2023-01-28T05:07:54;3.40;99.90
8792;DHT22;4432;50.890;4.744;2023-01-28T05:10:21;3.40;99.90
8792;DHT22;4432;50.890;4.744;2023-01-28T05:12:47;3.30;99.90
8792;DHT22;4432;50.890;4.744;2023-01-28T05:15:14;3.30;99.90
8792;DHT22;4432;50.890;4.744;2023-01-28T05:17:40;3.30;99.90
8792;DHT22;4432;50.890;4.744;2023-01-28T05:20:08;3.30;99.90
8792;DHT22;4432;50.890;4.744;2023-01-28T05:22:34;3.30;99.90
8792;DHT22;4432;50.890;4.744;2023-01-28T05:25:00;3.30;99.90
8792;DHT22;4432;50.890;4.744;2023-01-28T05:27:28;3.30;99.90
8792;DHT22;4432;50.890;4.744;2023-01-28T05:29:54;3.40;99.90
8792;DHT22;4432;50.890;4.744;2023-01-28T05:32:20;3.40;99.90
8792;DHT22;4432;50.890;4.744;2023-01-28T05:34:45;3.40;99.90
8792;DHT22;4432;50.890;4.744;2023-01-28T05:37:11;3.40;99.90
8792;DHT22;4432;50.890;4.744;2023-01-28T05:39:37;3.40;99.90
8792;DHT22;4432;50.890;4.744;2023-01-28T05:42:03;3.40;99.90
8792;DHT22;4432;50.890;4.744;2023-01-28T05:44:28;3.40;99.90
8792;DHT22;4432;50.890;4.744;2023-01-28T05:46:54;3.40;99.90
8792;DHT22;4432;50.890;4.744;2023-01-28T05:49:20;3.30;99.90
8792;DHT22;4432;50.890;4.744;2023-01-28T05:51:46;3.40;99.90
8792;DHT22;4432;50.890;4.744;2023-01-28T05:54:13;3.40;99.90
8792;DHT22;4432;50.890;4.744;2023-01-28T05:56:39;3.40;99.90
8792;DHT22;4432;50.890;4.744;2023-01-28T05:59:05;3.40;99.90
8792;DHT22;4432;50.890;4.744;2023-01-28T06:01:31;3.40;99.90
8792;DHT22;4432;50.890;4.744;2023-01-28T06:03:57;3.40;99.90
8792;DHT22;4432;50.890;4.744;2023-01-28T06:06:24;3.40;99.90
8792;DHT22;4432;50.890;4.744;2023-01-28T06:08:50;3.30;99.90
8792;DHT22;4432;50.890;4.744;2023-01-28T06:11:16;3.20;99.90
8792;DHT22;4432;50.890;4.744;2023-01-28T06:13:42;3.30;99.90
8792;DHT22;4432;50.890;4.744;2023-01-28T06:16:07;3.30;99.90
8792;DHT22;4432;50.890;4.744;2023-01-28T06:18:33;3.30;99.90
8792;DHT22;4432;50.890;4.744;2023-01-28T06:20:59;3.20;99.90
8792;DHT22;4432;50.890;4.744;2023-01-28T06:23:25;3.20;99.90
8792;DHT22;4432;50.890;4.744;2023-01-28T06:25:55;3.30;99.90
8792;DHT22;4432;50.890;4.744;2023-01-28T06:28:21;3.30;99.90
8792;DHT22;4432;50.890;4.744;2023-01-28T06:30:48;3.30;99.90
8792;DHT22;4432;50.890;4.744;2023-01-28T06:33:14;3.30;99.90
8792;DHT22;4432;50.890;4.744;2023-01-28T06:35:40;3.30;99.90
8792;DHT22;4432;50.890;4.744;2023-01-28T06:38:06;3.30;99.90
8792;DHT22;4432;50.890;4.744;2023-01-28T06:40:31;3.30;99.90
8792;DHT22;4432;50.890;4.744;2023-01-28T06:42:57;3.30;99.90
8792;DHT22;4432;50.890;4.744;2023-01-28T06:45:23;3.30;99.90
8792;DHT22;4432;50.890;4.744;2023-01-28T06:47:49;3.30;99.90
8792;DHT22;4432;50.890;4.744;2023-01-28T06:50:15;3.30;99.90
8792;DHT22;4432;50.890;4.744;2023-01-28T06:52:40;3.30;99.90
8792;DHT22;4432;50.890;4.744;2023-01-28T06:55:07;3.30;99.90
8792;DHT22;4432;50.890;4.744;2023-01-28T06:57:32;3.30;99.90
8792;DHT22;4432;50.890;4.744;2023-01-28T06:59:58;3.30;99.90
8792;DHT22;4432;50.890;4.744;2023-01-28T07:02:24;3.20;99.90
8792;DHT22;4432;50.890;4.744;2023-01-28T07:04:50;3.20;99.90
8792;DHT22;4432;50.890;4.744;2023-01-28T07:07:16;3.20;99.90
8792;DHT22;4432;50.890;4.744;2023-01-28T07:09:41;3.20;99.90
8792;DHT22;4432;50.890;4.744;2023-01-28T07:12:07;3.20;99.90
8792;DHT22;4432;50.890;4.744;2023-01-28T07:14:33;3.20;99.90
8792;DHT22;4432;50.890;4.744;2023-01-28T07:16:59;3.20;99.90
8792;DHT22;4432;50.890;4.744;2023-01-28T07:19:24;3.20;99.90
8792;DHT22;4432;50.890;4.744;2023-01-28T07:21:50;3.10;99.90
8792;DHT22;4432;50.890;4.744;2023-01-28T07:24:16;3.00;99.90
8792;DHT22;4432;50.890;4.744;2023-01-28T07:26:41;3.00;99.90
8792;DHT22;4432;50.890;4.744;2023-01-28T07:29:08;3.00;99.90
8792;DHT22;4432;50.890;4.744;2023-01-28T07:31:33;3.10;99.90
8792;DHT22;4432;50.890;4.744;2023-01-28T07:33:59;3.10;99.90
8792;DHT22;4432;50.890;4.744;2023-01-28T07:36:25;3.10;99.90
8792;DHT22;4432;50.890;4.744;2023-01-28T07:38:51;3.10;99.90
8792;DHT22;4432;50.890;4.744;2023-01-28T07:41:16;3.10;99.90
8792;DHT22;4432;50.890;4.744;2023-01-28T07:43:42;3.00;99.90
8792;DHT22;4432;50.890;4.744;2023-01-28T07:46:08;3.10;99.90
8792;DHT22;4432;50.890;4.744;2023-01-28T07:48:34;3.10;99.90
8792;DHT22;4432;50.890;4.744;2023-01-28T07:51:00;3.00;99.90
8792;DHT22;4432;50.890;4.744;2023-01-28T07:53:26;3.00;99.90
8792;DHT22;4432;50.890;4.744;2023-01-28T07:55:57;3.00;99.90
8792;DHT22;4432;50.890;4.744;2023-01-28T07:58:22;3.00;99.90
8792;DHT22;4432;50.890;4.744;2023-01-28T08:00:48;3.00;99.90
8792;DHT22;4432;50.890;4.744;2023-01-28T08:03:14;3.00;99.90
8792;DHT22;4432;50.890;4.744;2023-01-28T08:05:48;2.90;99.90
8792;DHT22;4432;50.890;4.744;2023-01-28T08:08:14;3.00;99.90
8792;DHT22;4432;50.890;4.744;2023-01-28T08:10:41;3.00;99.90
8792;DHT22;4432;50.890;4.744;2023-01-28T08:13:09;3.00;99.90
8792;DHT22;4432;50.890;4.744;2023-01-28T08:15:35;3.00;99.90
8792;DHT22;4432;50.890;4.744;2023-01-28T08:18:02;3.00;99.90
8792;DHT22;4432;50.890;4.744;2023-01-28T08:20:29;3.00;99.90
8792;DHT22;4432;50.890;4.744;2023-01-28T08:23:16;3.00;99.90
8792;DHT22;4432;50.890;4.744;2023-01-28T08:25:43;3.00;99.90
8792;DHT22;4432;50.890;4.744;2023-01-28T08:28:09;3.00;99.90
8792;DHT22;4432;50.890;4.744;2023-01-28T08:30:36;3.00;99.90
8792;DHT22;4432;50.890;4.744;2023-01-28T08:33:04;3.00;99.90
8792;DHT22;4432;50.890;4.744;2023-01-28T08:35:31;3.00;99.90
8792;DHT22;4432;50.890;4.744;2023-01-28T08:37:59;3.10;99.90
8792;DHT22;4432;50.890;4.744;2023-01-28T08:40:25;3.10;99.90
8792;DHT22;4432;50.890;4.744;2023-01-28T08:42:52;3.10;99.90
8792;DHT22;4432;50.890;4.744;2023-01-28T08:45:19;3.10;99.90
8792;DHT22;4432;50.890;4.744;2023-01-28T08:47:51;3.10;99.90
8792;DHT22;4432;50.890;4.744;2023-01-28T08:50:18;3.20;99.90
8792;DHT22;4432;50.890;4.744;2023-01-28T08:52:45;3.20;99.90
8792;DHT22;4432;50.890;4.744;2023-01-28T08:55:12;3.20;99.90
8792;DHT22;4432;50.890;4.744;2023-01-28T08:57:38;3.20;99.90
8792;DHT22;4432;50.890;4.744;2023-01-28T09:00:05;3.20;99.90
8792;DHT22;4432;50.890;4.744;2023-01-28T09:02:31;3.20;99.90
8792;DHT22;4432;50.890;4.744;2023-01-28T09:04:58;3.20;99.90
8792;DHT22;4432;50.890;4.744;2023-01-28T09:07:23;3.20;99.90
8792;DHT22;4432;50.890;4.744;2023-01-28T09:09:49;3.20;99.90
8792;DHT22;4432;50.890;4.744;2023-01-28T09:12:15;3.30;99.90
8792;DHT22;4432;50.890;4.744;2023-01-28T09:14:41;3.20;99.90
8792;DHT22;4432;50.890;4.744;2023-01-28T09:17:07;3.20;99.90
8792;DHT22;4432;50.890;4.744;2023-01-28T09:19:33;3.30;99.90
8792;DHT22;4432;50.890;4.744;2023-01-28T09:21:58;3.30;99.90
8792;DHT22;4432;50.890;4.744;2023-01-28T09:24:24;3.30;99.90
8792;DHT22;4432;50.890;4.744;2023-01-28T09:26:50;3.40;99.90
8792;DHT22;4432;50.890;4.744;2023-01-28T09:29:16;3.50;99.90
8792;DHT22;4432;50.890;4.744;2023-01-28T09:31:42;3.50;99.90
8792;DHT22;4432;50.890;4.744;2023-01-28T09:34:08;3.50;99.90
8792;DHT22;4432;50.890;4.744;2023-01-28T09:36:34;3.50;99.90
8792;DHT22;4432;50.890;4.744;2023-01-28T09:39:01;3.40;99.90
8792;DHT22;4432;50.890;4.744;2023-01-28T09:41:32;3.40;99.90
8792;DHT22;4432;50.890;4.744;2023-01-28T09:46:45;3.40;99.90
8792;DHT22;4432;50.890;4.744;2023-01-28T09:49:32;3.50;99.90
8792;DHT22;4432;50.890;4.744;2023-01-28T09:51:59;3.50;99.90
8792;DHT22;4432;50.890;4.744;2023-01-28T09:57:12;3.50;99.90
8792;DHT22;4432;50.890;4.744;2023-01-28T09:59:41;3.50;99.90
8792;DHT22;4432;50.890;4.744;2023-01-28T10:07:41;3.30;99.90
8792;DHT22;4432;50.890;4.744;2023-01-28T10:10:14;3.30;99.90
8792;DHT22;4432;50.890;4.744;2023-01-28T10:18:33;3.70;99.90
8792;DHT22;4432;50.890;4.744;2023-01-28T10:21:30;3.80;99.90
8792;DHT22;4432;50.890;4.744;2023-01-28T10:24:16;3.70;99.90
8792;DHT22;4432;50.890;4.744;2023-01-28T10:26:43;3.70;99.90
8792;DHT22;4432;50.890;4.744;2023-01-28T10:29:19;3.80;99.90
8792;DHT22;4432;50.890;4.744;2023-01-28T10:34:39;3.60;99.90
8792;DHT22;4432;50.890;4.744;2023-01-28T10:37:05;3.50;99.90
8792;DHT22;4432;50.890;4.744;2023-01-28T10:39:32;3.50;99.90
8792;DHT22;4432;50.890;4.744;2023-01-28T10:41:58;3.60;99.90
8792;DHT22;4432;50.890;4.744;2023-01-28T10:44:41;3.60;99.90
8792;DHT22;4432;50.890;4.744;2023-01-28T10:47:16;3.60;99.90
8792;DHT22;4432;50.890;4.744;2023-01-28T10:49:50;3.60;99.90
8792;DHT22;4432;50.890;4.744;2023-01-28T10:52:17;3.60;99.90
8792;DHT22;4432;50.890;4.744;2023-01-28T10:54:43;3.50;99.90
8792;DHT22;4432;50.890;4.744;2023-01-28T10:57:11;3.50;99.90
8792;DHT22;4432;50.890;4.744;2023-01-28T10:59:38;3.50;99.90
8792;DHT22;4432;50.890;4.744;2023-01-28T11:07:35;3.50;99.90
8792;DHT22;4432;50.890;4.744;2023-01-28T11:10:01;3.40;99.90
8792;DHT22;4432;50.890;4.744;2023-01-28T11:12:29;3.40;99.90
8792;DHT22;4432;50.890;4.744;2023-01-28T11:15:04;3.50;99.90
8792;DHT22;4432;50.890;4.744;2023-01-28T11:17:32;3.40;99.90
8792;DHT22;4432;50.890;4.744;2023-01-28T11:20:07;3.40;99.90
8792;DHT22;4432;50.890;4.744;2023-01-28T11:22:40;3.40;99.90
8792;DHT22;4432;50.890;4.744;2023-01-28T11:25:35;3.50;99.90
8792;DHT22;4432;50.890;4.744;2023-01-28T11:28:13;3.60;99.90
8792;DHT22;4432;50.890;4.744;2023-01-28T11:30:40;3.60;99.90
8792;DHT22;4432;50.890;4.744;2023-01-28T11:33:20;3.50;99.90
8792;DHT22;4432;50.890;4.744;2023-01-28T11:36:02;3.60;99.90
8792;DHT22;4432;50.890;4.744;2023-01-28T11:38:28;3.70;99.90
8792;DHT22;4432;50.890;4.744;2023-01-28T11:40:56;3.60;99.90
8792;DHT22;4432;50.890;4.744;2023-01-28T11:43:25;3.70;99.90
8792;DHT22;4432;50.890;4.744;2023-01-28T11:51:36;3.60;99.90
8792;DHT22;4432;50.890;4.744;2023-01-28T11:56:45;3.70;99.90
8792;DHT22;4432;50.890;4.744;2023-01-28T11:59:35;3.60;99.90
8792;DHT22;4432;50.890;4.744;2023-01-28T12:07:37;3.50;99.90
8792;DHT22;4432;50.890;4.744;2023-01-28T12:13:12;3.60;99.90
8792;DHT22;4432;50.890;4.744;2023-01-28T12:41:10;4.10;99.90
8792;DHT22;4432;50.890;4.744;2023-01-28T12:43:57;4.20;99.90
8792;DHT22;4432;50.890;4.744;2023-01-28T12:49:24;4.30;99.90
8792;DHT22;4432;50.890;4.744;2023-01-28T12:52:13;4.00;99.90
8792;DHT22;4432;50.890;4.744;2023-01-28T12:54:41;4.10;99.90
8792;DHT22;4432;50.890;4.744;2023-01-28T12:57:15;4.10;99.90
8792;DHT22;4432;50.890;4.744;2023-01-28T13:02:37;3.80;99.90
8792;DHT22;4432;50.890;4.744;2023-01-28T13:05:09;3.80;99.90
8792;DHT22;4432;50.890;4.744;2023-01-28T13:08:00;4.00;99.90
8792;DHT22;4432;50.890;4.744;2023-01-28T13:10:31;4.10;99.90
8792;DHT22;4432;50.890;4.744;2023-01-28T13:13:02;4.10;99.90
8792;DHT22;4432;50.890;4.744;2023-01-28T13:15:29;4.10;99.90
8792;DHT22;4432;50.890;4.744;2023-01-28T13:18:00;4.30;99.90
8792;DHT22;4432;50.890;4.744;2023-01-28T13:20:48;4.40;99.90
8792;DHT22;4432;50.890;4.744;2023-01-28T13:23:35;4.60;99.90
8792;DHT22;4432;50.890;4.744;2023-01-28T13:28:43;4.60;99.90
8792;DHT22;4432;50.890;4.744;2023-01-28T13:31:11;4.50;99.90
8792;DHT22;4432;50.890;4.744;2023-01-28T13:36:42;4.00;99.90
8792;DHT22;4432;50.890;4.744;2023-01-28T13:39:20;3.90;99.90
8792;DHT22;4432;50.890;4.744;2023-01-28T13:41:52;3.80;99.90
8792;DHT22;4432;50.890;4.744;2023-01-28T13:46:51;3.80;99.90
8792;DHT22;4432;50.890;4.744;2023-01-28T13:49:31;3.80;99.90
8792;DHT22;4432;50.890;4.744;2023-01-28T13:52:11;3.80;99.90
8792;DHT22;4432;50.890;4.744;2023-01-28T13:54:42;3.80;99.90
8792;DHT22;4432;50.890;4.744;2023-01-28T13:57:44;4.00;99.90
8792;DHT22;4432;50.890;4.744;2023-01-28T14:00:24;3.90;99.90
8792;DHT22;4432;50.890;4.744;2023-01-28T14:17:02;4.00;99.90
8792;DHT22;4432;50.890;4.744;2023-01-28T14:19:34;4.10;99.90
8792;DHT22;4432;50.890;4.744;2023-01-28T14:22:08;4.10;99.90
8792;DHT22;4432;50.890;4.744;2023-01-28T14:24:38;4.10;99.90
8792;DHT22;4432;50.890;4.744;2023-01-28T14:27:19;4.00;99.90
8792;DHT22;4432;50.890;4.744;2023-01-28T14:32:34;4.10;99.90
8792;DHT22;4432;50.890;4.744;2023-01-28T14:35:06;4.10;99.90
8792;DHT22;4432;50.890;4.744;2023-01-28T14:37:33;4.10;99.90
8792;DHT22;4432;50.890;4.744;2023-01-28T14:42:41;4.20;99.90
8792;DHT22;4432;50.890;4.744;2023-01-28T14:48:36;4.00;99.90
8792;DHT22;4432;50.890;4.744;2023-01-28T15:01:46;3.70;99.90
8792;DHT22;4432;50.890;4.744;2023-01-28T15:04:27;3.70;99.90
8792;DHT22;4432;50.890;4.744;2023-01-28T15:06:53;3.70;99.90
8792;DHT22;4432;50.890;4.744;2023-01-28T15:09:20;3.70;99.90
8792;DHT22;4432;50.890;4.744;2023-01-28T15:11:49;3.60;99.90
8792;DHT22;4432;50.890;4.744;2023-01-28T15:14:30;3.50;99.90
8792;DHT22;4432;50.890;4.744;2023-01-28T15:16:56;3.50;99.90
8792;DHT22;4432;50.890;4.744;2023-01-28T15:19:34;3.40;99.90
8792;DHT22;4432;50.890;4.744;2023-01-28T15:22:03;3.40;99.90
8792;DHT22;4432;50.890;4.744;2023-01-28T15:24:31;3.30;99.90
8792;DHT22;4432;50.890;4.744;2023-01-28T15:26:58;3.10;99.90
8792;DHT22;4432;50.890;4.744;2023-01-28T15:31:50;3.10;99.90
8792;DHT22;4432;50.890;4.744;2023-01-28T15:34:18;3.10;99.90
8792;DHT22;4432;50.890;4.744;2023-01-28T15:36:45;3.10;99.90
8792;DHT22;4432;50.890;4.744;2023-01-28T15:39:17;2.90;99.90
8792;DHT22;4432;50.890;4.744;2023-01-28T15:41:55;2.90;99.90
8792;DHT22;4432;50.890;4.744;2023-01-28T15:47:01;2.80;99.90
8792;DHT22;4432;50.890;4.744;2023-01-28T15:49:32;2.70;99.90
8792;DHT22;4432;50.890;4.744;2023-01-28T15:52:00;2.70;99.90
8792;DHT22;4432;50.890;4.744;2023-01-28T15:54:26;2.70;99.90
8792;DHT22;4432;50.890;4.744;2023-01-28T15:56:55;2.60;99.90
8792;DHT22;4432;50.890;4.744;2023-01-28T15:59:26;2.40;99.90
8792;DHT22;4432;50.890;4.744;2023-01-28T16:02:18;2.30;99.90
8792;DHT22;4432;50.890;4.744;2023-01-28T16:05:02;2.20;99.90
8792;DHT22;4432;50.890;4.744;2023-01-28T16:07:30;2.10;99.90
8792;DHT22;4432;50.890;4.744;2023-01-28T16:09:59;2.00;99.90
8792;DHT22;4432;50.890;4.744;2023-01-28T16:12:26;1.90;99.90
8792;DHT22;4432;50.890;4.744;2023-01-28T16:14:58;1.90;99.90
8792;DHT22;4432;50.890;4.744;2023-01-28T16:17:38;1.90;99.90
8792;DHT22;4432;50.890;4.744;2023-01-28T16:20:08;2.00;99.90
8792;DHT22;4432;50.890;4.744;2023-01-28T16:22:42;2.00;99.90
8792;DHT22;4432;50.890;4.744;2023-01-28T16:27:46;2.00;99.90
8792;DHT22;4432;50.890;4.744;2023-01-28T16:30:12;1.90;99.90
8792;DHT22;4432;50.890;4.744;2023-01-28T16:32:39;2.00;99.90
8792;DHT22;4432;50.890;4.744;2023-01-28T16:35:15;2.00;99.90
8792;DHT22;4432;50.890;4.744;2023-01-28T16:37:45;2.10;99.90
8792;DHT22;4432;50.890;4.744;2023-01-28T16:40:13;2.10;99.90
8792;DHT22;4432;50.890;4.744;2023-01-28T16:42:40;2.10;99.90
8792;DHT22;4432;50.890;4.744;2023-01-28T16:45:09;2.10;99.90
8792;DHT22;4432;50.890;4.744;2023-01-28T16:47:35;2.10;99.90
8792;DHT22;4432;50.890;4.744;2023-01-28T16:50:01;2.30;99.90
8792;DHT22;4432;50.890;4.744;2023-01-28T16:52:27;2.50;99.90
8792;DHT22;4432;50.890;4.744;2023-01-28T16:54:53;2.60;99.90
8792;DHT22;4432;50.890;4.744;2023-01-28T16:57:21;2.70;99.90
8792;DHT22;4432;50.890;4.744;2023-01-28T16:59:47;2.80;99.90
8792;DHT22;4432;50.890;4.744;2023-01-28T17:02:14;2.70;99.90
8792;DHT22;4432;50.890;4.744;2023-01-28T17:04:40;2.60;99.90
8792;DHT22;4432;50.890;4.744;2023-01-28T17:07:06;2.50;99.90
8792;DHT22;4432;50.890;4.744;2023-01-28T17:09:32;2.40;99.90
8792;DHT22;4432;50.890;4.744;2023-01-28T17:11:58;2.20;99.90
8792;DHT22;4432;50.890;4.744;2023-01-28T17:14:24;2.10;99.90
8792;DHT22;4432;50.890;4.744;2023-01-28T17:16:50;1.90;99.90
8792;DHT22;4432;50.890;4.744;2023-01-28T17:19:16;2.00;99.90
8792;DHT22;4432;50.890;4.744;2023-01-28T17:21:42;1.90;99.90
8792;DHT22;4432;50.890;4.744;2023-01-28T17:24:08;1.90;99.90
8792;DHT22;4432;50.890;4.744;2023-01-28T17:26:34;1.90;99.90
8792;DHT22;4432;50.890;4.744;2023-01-28T17:29:05;1.80;99.90
8792;DHT22;4432;50.890;4.744;2023-01-28T17:31:33;1.90;99.90
8792;DHT22;4432;50.890;4.744;2023-01-28T17:33:58;1.80;99.90
8792;DHT22;4432;50.890;4.744;2023-01-28T17:36:26;1.80;99.90
8792;DHT22;4432;50.890;4.744;2023-01-28T17:38:52;1.70;99.90
8792;DHT22;4432;50.890;4.744;2023-01-28T17:41:19;1.60;99.90
8792;DHT22;4432;50.890;4.744;2023-01-28T17:43:55;1.40;99.90
8792;DHT22;4432;50.890;4.744;2023-01-28T17:46:23;1.20;99.90
8792;DHT22;4432;50.890;4.744;2023-01-28T17:48:49;1.10;99.90
8792;DHT22;4432;50.890;4.744;2023-01-28T17:51:15;1.10;99.90
8792;DHT22;4432;50.890;4.744;2023-01-28T17:53:52;0.80;99.90
8792;DHT22;4432;50.890;4.744;2023-01-28T17:56:20;0.70;99.90
8792;DHT22;4432;50.890;4.744;2023-01-28T17:58:57;0.50;99.90
8792;DHT22;4432;50.890;4.744;2023-01-28T18:01:24;0.40;99.90
8792;DHT22;4432;50.890;4.744;2023-01-28T18:03:50;0.20;99.90
8792;DHT22;4432;50.890;4.744;2023-01-28T18:06:16;0.10;99.90
8792;DHT22;4432;50.890;4.744;2023-01-28T18:08:42;0.20;99.90
8792;DHT22;4432;50.890;4.744;2023-01-28T18:11:13;0.00;99.90
8792;DHT22;4432;50.890;4.744;2023-01-28T18:13:40;-0.10;99.90
8792;DHT22;4432;50.890;4.744;2023-01-28T18:16:09;-0.10;99.90
8792;DHT22;4432;50.890;4.744;2023-01-28T18:18:35;-0.20;99.90
8792;DHT22;4432;50.890;4.744;2023-01-28T18:21:04;-0.20;99.90
8792;DHT22;4432;50.890;4.744;2023-01-28T18:23:30;-0.30;99.90
8792;DHT22;4432;50.890;4.744;2023-01-28T18:25:57;-0.40;99.90
8792;DHT22;4432;50.890;4.744;2023-01-28T18:28:23;-0.40;99.90
8792;DHT22;4432;50.890;4.744;2023-01-28T18:30:49;-0.50;99.90
8792;DHT22;4432;50.890;4.744;2023-01-28T18:33:16;-0.50;99.90
8792;DHT22;4432;50.890;4.744;2023-01-28T18:35:43;-0.60;99.90
8792;DHT22;4432;50.890;4.744;2023-01-28T18:38:09;-0.70;99.90
8792;DHT22;4432;50.890;4.744;2023-01-28T18:40:35;-0.80;99.90
8792;DHT22;4432;50.890;4.744;2023-01-28T18:43:01;-0.80;99.90
8792;DHT22;4432;50.890;4.744;2023-01-28T18:45:26;-0.70;99.90
8792;DHT22;4432;50.890;4.744;2023-01-28T18:47:53;-0.60;99.90
8792;DHT22;4432;50.890;4.744;2023-01-28T18:50:18;-0.70;99.90
8792;DHT22;4432;50.890;4.744;2023-01-28T18:52:44;-0.80;99.90
8792;DHT22;4432;50.890;4.744;2023-01-28T18:55:10;-0.90;99.90
8792;DHT22;4432;50.890;4.744;2023-01-28T18:57:37;-0.90;99.90
8792;DHT22;4432;50.890;4.744;2023-01-28T19:00:03;-0.90;99.90